createdAt,value
2022-12-25T00:02:24.512Z,1.80
2022-12-25T00:05:09.754Z,1.58
2022-12-25T00:07:55.144Z,1.70
2022-12-25T00:10:45.162Z,1.30
2022-12-25T00:13:31.007Z,1.58
2022-12-25T00:48:17.054Z,1.40
2022-12-25T00:51:06.880Z,1.65
2022-12-25T00:53:51.972Z,1.52
2022-12-25T00:56:37.187Z,1.40
2022-12-25T00:59:22.300Z,1.42
2022-12-25T01:02:37.066Z,1.40
2022-12-25T01:05:22.194Z,1.30
2022-12-25T01:08:07.252Z,1.65
2022-12-25T01:11:00.807Z,1.43
2022-12-25T01:13:45.813Z,1.60
2022-12-25T01:45:57.991Z,1.73
2022-12-25T01:48:43.353Z,1.40
2022-12-25T01:52:00.611Z,1.50
2022-12-25T01:54:53.570Z,1.30
2022-12-25T01:57:40.512Z,1.60
2022-12-25T02:00:25.474Z,1.50
2022-12-25T02:03:10.805Z,1.70
2022-12-25T02:05:56.460Z,1.55
2022-12-25T02:08:42.010Z,1.20
2022-12-25T02:11:45.902Z,1.83
2022-12-25T02:14:34.699Z,1.40
2022-12-25T02:17:32.953Z,1.58
2022-12-25T02:20:39.745Z,1.55
2022-12-25T02:23:37.273Z,1.42
2022-12-25T02:26:40.907Z,1.60
2022-12-25T02:29:25.903Z,1.50
2022-12-25T02:32:15.052Z,1.40
2022-12-25T02:35:07.817Z,1.40
2022-12-25T02:38:02.057Z,1.23
2022-12-25T02:40:57.264Z,1.40
2022-12-25T02:44:03.366Z,1.60
2022-12-25T02:47:07.848Z,1.50
2022-12-25T02:50:13.281Z,1.20
2022-12-25T02:53:20.813Z,1.40
2022-12-25T02:56:24.730Z,1.40
2022-12-25T02:59:29.735Z,1.23
2022-12-25T03:47:18.449Z,1.45
2022-12-25T03:50:28.107Z,1.30
2022-12-25T03:53:39.197Z,1.50
2022-12-25T03:56:44.343Z,1.08
2022-12-25T03:59:48.220Z,1.43
2022-12-25T04:45:11.557Z,1.23
2022-12-25T04:47:59.907Z,1.30
2022-12-25T04:50:45.025Z,1.30
2022-12-25T04:53:30.203Z,1.40
2022-12-25T04:56:16.377Z,1.50
2022-12-25T04:59:01.800Z,1.10
2022-12-25T05:31:20.118Z,1.40
2022-12-25T05:34:05.326Z,1.30
2022-12-25T05:36:50.346Z,1.23
2022-12-25T05:39:35.958Z,1.25
2022-12-25T05:42:21.324Z,1.30
2022-12-25T05:45:07.195Z,1.20
2022-12-25T05:47:52.700Z,1.10
2022-12-25T05:50:38.584Z,1.10
2022-12-25T05:53:24.078Z,1.20
2022-12-25T05:56:09.493Z,1.50
2022-12-25T05:58:54.873Z,1.20
2022-12-25T06:01:40.029Z,1.30
2022-12-25T06:04:26.681Z,1.20
2022-12-25T06:07:11.653Z,1.42
2022-12-25T06:09:57.121Z,1.40
2022-12-25T06:12:42.520Z,1.40
2022-12-25T06:15:27.764Z,1.37
2022-12-25T06:18:13.116Z,1.23
2022-12-25T06:20:58.259Z,1.40
2022-12-25T06:23:43.992Z,1.23
2022-12-25T06:26:29.500Z,1.30
2022-12-25T06:29:15.124Z,1.00
2022-12-25T06:32:00.438Z,1.27
2022-12-25T06:34:45.995Z,1.30
2022-12-25T06:37:32.152Z,1.30
2022-12-25T06:40:18.163Z,1.30
2022-12-25T06:43:03.550Z,1.30
2022-12-25T06:45:50.083Z,1.33
2022-12-25T06:48:36.117Z,1.30
2022-12-25T06:51:27.784Z,1.48
2022-12-25T06:54:13.925Z,1.20
2022-12-25T06:56:59.299Z,1.10
2022-12-25T06:59:47.431Z,1.20
2022-12-25T07:02:38.642Z,1.10
2022-12-25T07:05:24.164Z,1.23
2022-12-25T07:08:09.508Z,1.13
2022-12-25T07:10:55.156Z,1.50
2022-12-25T07:13:40.957Z,1.30
2022-12-25T07:16:26.208Z,1.45
2022-12-25T07:19:11.648Z,1.48
2022-12-25T07:21:57.047Z,1.30
2022-12-25T07:24:42.601Z,1.33
2022-12-25T07:27:27.985Z,1.35
2022-12-25T07:30:13.481Z,1.13
2022-12-25T07:32:58.533Z,1.30
2022-12-25T07:35:44.151Z,1.20
2022-12-25T07:38:29.500Z,1.20
2022-12-25T07:41:15.492Z,1.08
2022-12-25T07:44:00.984Z,1.20
2022-12-25T07:46:46.185Z,1.13
2022-12-25T07:49:31.387Z,1.30
2022-12-25T07:52:17.267Z,1.23
2022-12-25T07:55:02.997Z,1.23
2022-12-25T07:57:48.821Z,1.17
2022-12-25T08:00:34.260Z,1.05
2022-12-25T08:03:19.771Z,1.13
2022-12-25T08:06:10.184Z,1.20
2022-12-25T08:08:56.838Z,1.27
2022-12-25T08:11:46.984Z,1.23
2022-12-25T08:14:32.612Z,1.05
2022-12-25T08:17:17.766Z,1.17
2022-12-25T08:20:04.219Z,1.10
2022-12-25T08:22:49.608Z,1.30
2022-12-25T08:25:34.927Z,1.20
2022-12-25T08:28:20.034Z,1.17
2022-12-25T08:31:14.902Z,1.10
2022-12-25T08:34:02.579Z,0.93
2022-12-25T08:36:47.893Z,1.00
2022-12-25T08:39:33.478Z,1.10
2022-12-25T08:42:18.899Z,1.40
2022-12-25T08:45:04.704Z,1.30
2022-12-25T08:47:55.281Z,1.10
2022-12-25T08:50:51.433Z,1.10
2022-12-25T08:53:36.725Z,1.15
2022-12-25T08:56:21.981Z,1.02
2022-12-25T08:59:07.117Z,1.10
2022-12-25T09:01:52.308Z,1.10
2022-12-25T09:04:37.483Z,1.00
2022-12-25T09:07:22.647Z,0.90
2022-12-25T09:10:08.409Z,1.10
2022-12-25T09:12:53.755Z,1.13
2022-12-25T09:15:39.949Z,1.10
2022-12-25T09:18:25.783Z,0.90
2022-12-25T09:21:12.307Z,0.90
2022-12-25T09:23:57.570Z,0.90
2022-12-25T09:26:42.617Z,1.00
2022-12-25T09:29:27.799Z,1.10
2022-12-25T09:32:12.967Z,1.13
2022-12-25T09:34:58.177Z,1.02
2022-12-25T09:37:43.500Z,1.10
2022-12-25T09:40:30.851Z,1.20
2022-12-25T09:43:20.600Z,0.97
2022-12-25T09:46:13.815Z,1.05
2022-12-25T09:49:06.062Z,1.20
2022-12-25T09:51:58.925Z,1.13
2022-12-25T09:55:02.703Z,1.23
2022-12-25T09:57:56.892Z,1.10
2022-12-25T10:00:48.509Z,1.10
2022-12-25T10:03:59.803Z,1.10
2022-12-25T10:06:56.929Z,1.20
2022-12-25T10:10:06.400Z,1.15
2022-12-25T10:13:10.480Z,1.00
2022-12-25T10:16:06.269Z,1.08
2022-12-25T10:19:04.217Z,1.10
2022-12-25T10:21:54.391Z,1.10
2022-12-25T10:24:49.186Z,1.00
2022-12-25T10:27:38.831Z,1.20
2022-12-25T10:30:26.593Z,1.17
2022-12-25T10:33:17.125Z,1.00
2022-12-25T10:36:03.036Z,1.08
2022-12-25T10:38:48.889Z,1.00
2022-12-25T10:42:16.088Z,0.93
2022-12-25T10:45:08.350Z,1.20
2022-12-25T10:48:07.513Z,0.90
2022-12-25T10:50:53.730Z,0.80
2022-12-25T10:53:43.074Z,1.00
2022-12-25T10:56:28.428Z,1.00
2022-12-25T10:59:13.703Z,0.93
2022-12-25T11:02:14.381Z,1.10
2022-12-25T11:05:07.074Z,1.05
2022-12-25T11:07:55.356Z,1.10
2022-12-25T11:10:44.158Z,0.93
2022-12-25T11:13:30.678Z,1.10
2022-12-25T11:16:38.084Z,0.85
2022-12-25T11:19:32.323Z,1.00
2022-12-25T11:22:19.219Z,0.82
2022-12-25T11:25:21.066Z,1.00
2022-12-25T11:28:06.998Z,1.02
2022-12-25T11:31:00.710Z,0.95
2022-12-25T11:33:57.260Z,0.90
2022-12-25T11:36:48.571Z,0.90
2022-12-25T11:39:39.995Z,1.00
2022-12-25T11:42:34.503Z,1.05
2022-12-25T11:45:26.111Z,1.10
2022-12-25T11:48:19.717Z,1.00
2022-12-25T11:51:06.318Z,1.00
2022-12-25T11:53:54.491Z,1.00
2022-12-25T11:56:39.651Z,1.13
2022-12-25T11:59:32.159Z,0.90
2022-12-25T12:02:30.337Z,0.90
2022-12-25T12:05:26.712Z,1.10
2022-12-25T12:08:13.855Z,1.30
2022-12-25T12:11:17.336Z,0.98
2022-12-25T12:14:37.651Z,1.10
2022-12-25T12:17:23.160Z,1.00
2022-12-25T12:20:14.046Z,1.10
2022-12-25T12:23:02.049Z,1.00
2022-12-25T12:25:47.271Z,1.10
2022-12-25T12:28:45.804Z,1.00
2022-12-25T12:31:47.282Z,0.98
2022-12-25T12:34:42.883Z,0.90
2022-12-25T12:37:39.087Z,1.00
2022-12-25T12:40:31.750Z,0.93
2022-12-25T12:43:28.371Z,1.00
2022-12-25T12:46:26.128Z,1.00
2022-12-25T12:49:28.448Z,0.90
2022-12-25T12:52:24.420Z,0.90
2022-12-25T12:55:14.744Z,0.90
2022-12-25T12:58:01.727Z,1.08
2022-12-25T13:01:00.599Z,1.20
2022-12-25T13:04:02.340Z,1.02
2022-12-25T13:07:25.814Z,1.00
2022-12-25T13:10:33.495Z,1.00
2022-12-25T13:13:27.999Z,0.77
2022-12-25T13:16:22.645Z,0.98
2022-12-25T13:19:14.086Z,0.90
2022-12-25T13:22:02.047Z,1.20
2022-12-25T13:24:55.876Z,0.90
2022-12-25T13:27:41.222Z,0.90
2022-12-25T13:30:26.664Z,1.08
2022-12-25T13:33:18.559Z,1.00
2022-12-25T13:36:05.783Z,0.80
2022-12-25T13:38:53.999Z,1.02
2022-12-25T13:42:04.504Z,1.13
2022-12-25T13:44:54.503Z,1.20
2022-12-25T13:47:49.880Z,0.90
2022-12-25T13:50:37.403Z,1.20
2022-12-25T13:53:22.889Z,0.90
2022-12-25T13:56:15.236Z,1.05
2022-12-25T13:59:00.328Z,1.02
2022-12-25T14:01:46.388Z,1.15
2022-12-25T14:04:31.992Z,1.03
2022-12-25T14:07:24.089Z,1.10
2022-12-25T14:10:12.902Z,1.10
2022-12-25T14:13:02.587Z,1.00
2022-12-25T14:15:50.055Z,0.95
2022-12-25T14:18:35.693Z,1.00
2022-12-25T14:21:26.849Z,1.10
2022-12-25T14:24:14.873Z,1.00
2022-12-25T14:27:03.411Z,1.15
2022-12-25T14:29:51.821Z,1.10
2022-12-25T14:32:45.590Z,1.10
2022-12-25T14:35:31.128Z,1.10
2022-12-25T14:38:24.179Z,1.13
2022-12-25T14:41:33.103Z,0.93
2022-12-25T14:44:39.816Z,1.08
2022-12-25T14:47:25.753Z,1.30
2022-12-25T14:50:27.059Z,1.02
2022-12-25T14:53:20.607Z,1.08
2022-12-25T14:56:08.180Z,1.10
2022-12-25T14:58:56.290Z,0.90
2022-12-25T15:01:42.966Z,1.00
2022-12-25T15:04:29.580Z,1.27
2022-12-25T15:07:30.853Z,0.93
2022-12-25T15:10:58.238Z,1.20
2022-12-25T15:13:21.730Z,0.90
2022-12-25T15:16:19.200Z,1.13
2022-12-25T15:19:08.282Z,1.10
2022-12-25T15:21:53.661Z,1.13
2022-12-25T15:24:39.148Z,1.10
2022-12-25T15:27:24.426Z,1.20
2022-12-25T15:30:11.195Z,1.00
2022-12-25T15:32:56.397Z,1.05
2022-12-25T15:35:44.100Z,1.17
2022-12-25T15:38:36.338Z,1.10
2022-12-25T15:41:47.516Z,1.00
2022-12-25T15:44:32.751Z,0.97
2022-12-25T15:47:20.185Z,1.25
2022-12-25T15:50:06.393Z,1.08
2022-12-25T15:52:51.651Z,1.15
2022-12-25T15:55:36.939Z,1.00
2022-12-25T15:58:22.697Z,1.00
2022-12-25T16:01:14.180Z,1.00
2022-12-25T16:03:59.685Z,1.10
2022-12-25T16:06:45.568Z,1.00
2022-12-25T16:09:30.771Z,1.15
2022-12-25T16:12:16.173Z,1.10
2022-12-25T16:15:01.811Z,0.88
2022-12-25T16:17:46.925Z,0.80
2022-12-25T16:20:33.998Z,1.20
2022-12-25T16:23:19.890Z,1.20
2022-12-25T16:26:05.162Z,1.03
2022-12-25T16:28:50.549Z,0.90
2022-12-25T16:31:37.425Z,1.15
2022-12-25T16:34:23.084Z,1.10
2022-12-25T16:37:08.405Z,1.00
2022-12-25T16:39:53.955Z,1.00
2022-12-25T16:42:39.429Z,1.10
2022-12-25T16:45:24.822Z,1.00
2022-12-25T16:48:10.408Z,1.02
2022-12-25T16:50:55.683Z,1.10
2022-12-25T16:53:41.076Z,1.00
2022-12-25T16:56:28.433Z,0.90
2022-12-25T16:59:13.833Z,1.10
2022-12-25T17:01:59.050Z,1.00
2022-12-25T17:04:45.056Z,1.10
2022-12-25T17:07:30.517Z,1.33
2022-12-25T17:10:15.717Z,1.00
2022-12-25T17:13:00.885Z,1.33
2022-12-25T17:15:50.418Z,1.20
2022-12-25T17:18:36.096Z,1.10
2022-12-25T17:21:22.408Z,1.10
2022-12-25T17:24:07.849Z,1.20
2022-12-25T17:26:53.783Z,1.20
2022-12-25T17:29:39.870Z,1.10
2022-12-25T17:32:25.187Z,1.33
2022-12-25T17:35:10.351Z,1.10
2022-12-25T17:37:55.449Z,1.10
2022-12-25T17:40:40.910Z,1.00
2022-12-25T17:43:26.326Z,1.20
2022-12-25T17:46:14.267Z,1.17
2022-12-25T17:49:01.321Z,1.10
2022-12-25T17:51:47.148Z,1.08
2022-12-25T17:54:32.848Z,1.08
2022-12-25T17:57:18.075Z,1.20
2022-12-25T18:00:04.076Z,1.10
2022-12-25T18:02:50.072Z,1.10
2022-12-25T18:05:36.215Z,1.40
2022-12-25T18:08:21.349Z,1.27
2022-12-25T18:11:10.055Z,1.20
2022-12-25T18:13:58.195Z,1.20
2022-12-25T18:16:45.448Z,1.37
2022-12-25T18:19:30.813Z,1.20
2022-12-25T18:22:15.910Z,1.23
2022-12-25T18:25:01.247Z,1.20
2022-12-25T18:27:46.608Z,1.30
2022-12-25T18:30:32.010Z,1.20
2022-12-25T18:33:17.410Z,1.30
2022-12-25T18:36:03.384Z,1.52
2022-12-25T18:38:50.521Z,1.30
2022-12-25T18:41:55.617Z,1.30
2022-12-25T18:44:41.143Z,1.30
2022-12-25T18:47:26.487Z,1.20
2022-12-25T18:50:12.529Z,1.10
2022-12-25T18:52:57.417Z,1.25
2022-12-25T18:55:42.700Z,1.17
2022-12-25T18:58:28.735Z,1.30
2022-12-25T19:01:20.007Z,1.20
2022-12-25T19:04:06.254Z,1.10
2022-12-25T19:06:51.589Z,1.20
2022-12-25T19:09:36.814Z,1.10
2022-12-25T19:12:22.181Z,1.50
2022-12-25T19:15:07.873Z,1.30
2022-12-25T19:17:52.805Z,1.30
2022-12-25T19:20:40.712Z,1.20
2022-12-25T19:23:26.178Z,1.27
2022-12-25T19:26:12.188Z,1.10
2022-12-25T19:28:57.376Z,1.00
2022-12-25T19:31:43.670Z,1.20
2022-12-25T19:34:29.346Z,1.15
2022-12-25T19:37:15.058Z,1.30
2022-12-25T19:40:00.347Z,1.30
2022-12-25T19:42:45.698Z,1.20
2022-12-25T19:45:30.962Z,1.08
2022-12-25T19:48:16.155Z,1.10
2022-12-25T19:51:01.428Z,1.27
2022-12-25T19:53:47.327Z,1.30
2022-12-25T19:56:34.606Z,1.40
2022-12-25T19:59:20.129Z,1.23
2022-12-25T20:02:05.736Z,1.15
2022-12-25T20:04:51.346Z,1.20
2022-12-25T20:07:36.556Z,1.30
2022-12-25T20:10:21.532Z,1.10
2022-12-25T20:13:06.971Z,1.40
2022-12-25T20:15:52.153Z,1.13
2022-12-25T20:18:38.101Z,1.20
2022-12-25T20:21:27.185Z,1.23
2022-12-25T20:24:12.631Z,1.40
2022-12-25T20:26:59.403Z,1.10
2022-12-25T20:29:45.170Z,1.23
2022-12-25T20:32:30.378Z,1.40
2022-12-25T20:35:19.006Z,1.30
2022-12-25T20:38:04.430Z,1.20
2022-12-25T20:41:25.107Z,1.40
2022-12-25T20:43:55.875Z,1.50
2022-12-25T20:46:41.890Z,1.23
2022-12-25T20:49:32.107Z,1.30
2022-12-25T20:52:18.273Z,1.40
2022-12-25T20:55:03.781Z,1.23
2022-12-25T20:57:49.136Z,1.30
2022-12-25T21:00:35.142Z,1.48
2022-12-25T21:03:20.438Z,1.20
2022-12-25T21:06:06.210Z,1.30
2022-12-25T21:08:51.657Z,1.40
2022-12-25T21:11:36.733Z,1.25
2022-12-25T21:14:21.797Z,1.45
2022-12-25T21:17:07.103Z,1.20
2022-12-25T21:19:52.559Z,1.20
2022-12-25T21:22:37.958Z,1.17
2022-12-25T21:25:23.135Z,1.20
2022-12-25T21:28:08.652Z,1.48
2022-12-25T21:30:54.265Z,1.33
2022-12-25T21:33:51.502Z,1.38
2022-12-25T21:36:37.080Z,1.23
2022-12-25T21:39:23.097Z,1.40
2022-12-25T21:42:08.362Z,1.42
2022-12-25T21:44:53.601Z,1.30
2022-12-25T21:48:01.831Z,1.30
2022-12-25T21:51:03.327Z,1.10
2022-12-25T21:53:48.339Z,1.23
2022-12-25T21:56:43.034Z,1.48
2022-12-25T21:59:28.871Z,1.20
2022-12-25T22:02:14.335Z,1.10
2022-12-25T22:04:59.977Z,1.40
2022-12-25T22:07:45.068Z,1.20
2022-12-25T22:10:31.135Z,1.33
2022-12-25T22:13:35.189Z,1.40
2022-12-25T22:16:39.147Z,1.38
2022-12-25T22:19:48.107Z,1.30
2022-12-25T22:22:33.484Z,1.10
2022-12-25T22:25:19.386Z,1.40
2022-12-25T22:28:04.712Z,1.43
2022-12-25T22:30:49.856Z,1.23
2022-12-25T22:33:35.053Z,1.25
2022-12-25T22:36:20.890Z,1.40
2022-12-25T22:39:06.231Z,1.30
2022-12-25T22:41:54.588Z,1.20
2022-12-25T22:44:39.996Z,1.30
2022-12-25T22:47:25.126Z,1.30
2022-12-25T22:50:11.896Z,1.50
2022-12-25T22:52:57.148Z,1.25
2022-12-25T22:55:49.340Z,1.30
2022-12-25T22:58:34.304Z,1.45
2022-12-25T23:01:19.764Z,1.30
2022-12-25T23:04:07.644Z,1.30
2022-12-25T23:06:53.065Z,1.30
2022-12-25T23:09:38.379Z,1.40
2022-12-25T23:12:42.428Z,1.20
2022-12-25T23:15:28.257Z,1.02
2022-12-25T23:18:32.239Z,1.25
2022-12-25T23:21:47.206Z,1.17
2022-12-25T23:24:51.792Z,1.20
2022-12-25T23:27:37.101Z,1.20
2022-12-25T23:30:22.435Z,1.27
2022-12-25T23:33:07.683Z,1.25
2022-12-25T23:35:53.013Z,1.40
2022-12-25T23:38:38.156Z,1.23
2022-12-25T23:41:24.073Z,1.30
2022-12-25T23:44:11.235Z,1.30
2022-12-25T23:46:57.280Z,1.27
2022-12-25T23:49:42.744Z,1.40
2022-12-25T23:52:28.143Z,1.20
2022-12-25T23:55:13.993Z,1.40
2022-12-25T23:57:59.365Z,1.30
